Terminal Aerodrome Forecast
Issued by NWS Austin/San Antonio, TX

Home | Current Version | Previous Version | Text Only | Print | Product List | Glossary On
Versions: 1 2 3 4 5 6 7 8 9 10 11 12 13 14 15 16 17 18 19 20 21 22 23
000
FTUS44 KEWX 281500 AAB
TAFAUS
TAF AMD
KAUS 281545Z 2816/0118 01012KT 6SM BR BKN012 OVC020
      TEMPO 2817/2819 4SM -FZDZ BR BKN008
     FM282200 05007KT 4SM BR OVC008
     FM010900 04003KT 1/2SM FG OVC003
     FM011500 04004KT 1SM BR OVC003=

USA.gov is the U.S. government's official web portal to all federal, state and local government web resources and services.